Time;durP1;ratioP1;P1;durP2;ratioP2;P2;SDS_P1;SDS_P2;PMS_P1;PMS_P2;Temp;Humidity;BMP_temperature;BMP_pressure;BME280_temperature;BME280_humidity;BME280_pressure;Samples;Min_cycle;Max_cycle;Signal;HPM_P1;HPM_P2
2023/12/21 00:02:22;;;;;;;2.28;1.25;;;22.90;39.90;;;;;;5121541;27;20024;-43
2023/12/21 00:04:49;;;;;;;1.15;0.82;;;22.90;39.80;;;;;;5110891;28;20110;-44
2023/12/21 00:07:15;;;;;;;;;;;22.90;39.70;;;;;;5116538;28;20210;-43
2023/12/21 00:09:41;;;;;;;2.05;1.30;;;22.90;39.80;;;;;;5117662;28;20417;-42
2023/12/21 00:12:07;;;;;;;4.38;1.10;;;22.90;40.10;;;;;;5116973;28;20087;-41
2023/12/21 00:14:33;;;;;;;3.55;1.33;;;22.90;40.30;;;;;;5117994;28;20107;-43
2023/12/21 00:16:59;;;;;;;2.17;1.13;;;22.80;40.10;;;;;;5109038;28;20029;-41
2023/12/21 00:19:25;;;;;;;1.95;1.20;;;22.80;39.80;;;;;;5134695;27;20034;-42
2023/12/21 00:21:52;;;;;;;1.90;1.48;;;22.80;39.80;;;;;;5111173;28;20032;-41
2023/12/21 00:24:18;;;;;;;2.33;1.10;;;22.80;39.70;;;;;;5113115;28;20047;-41
2023/12/21 00:26:44;;;;;;;1.40;1.20;;;22.80;39.70;;;;;;5115127;28;20043;-44
2023/12/21 00:29:10;;;;;;;1.60;1.10;;;22.80;39.70;;;;;;5113756;28;20043;-40
2023/12/21 00:31:36;;;;;;;1.90;1.30;;;22.80;39.60;;;;;;5116805;28;20031;-41
2023/12/21 00:34:02;;;;;;;1.27;1.08;;;22.80;39.70;;;;;;5111435;28;20031;-41
2023/12/21 00:36:28;;;;;;;2.33;1.48;;;22.80;39.60;;;;;;5110452;28;20039;-41
2023/12/21 00:38:55;;;;;;;1.50;1.23;;;22.80;39.60;;;;;;5113283;28;20496;-41
2023/12/21 00:41:21;;;;;;;1.92;1.00;;;22.70;39.60;;;;;;5113030;28;20031;-41
2023/12/21 00:43:47;;;;;;;1.70;1.38;;;22.70;39.70;;;;;;5113859;28;20437;-40
2023/12/21 00:46:13;;;;;;;1.42;1.13;;;22.70;39.60;;;;;;5112799;28;20039;-40
2023/12/21 00:48:39;;;;;;;1.98;1.27;;;22.70;39.60;;;;;;5096150;28;20873;-40
2023/12/21 00:51:06;;;;;;;1.55;1.30;;;22.70;39.60;;;;;;5114418;28;20024;-41
2023/12/21 00:53:52;;;;;;;1.33;1.10;;;22.70;39.60;;;;;;5112360;28;20051;-41
2023/12/21 00:56:18;;;;;;;1.70;1.17;;;22.70;39.60;;;;;;5010845;28;20502;-40
2023/12/21 00:58:44;;;;;;;1.48;1.10;;;22.70;39.50;;;;;;5012567;28;20041;-41
2023/12/21 01:01:10;;;;;;;1.08;0.95;;;22.80;39.50;;;;;;5011940;28;20045;-40
2023/12/21 01:03:37;;;;;;;1.05;0.95;;;22.80;39.40;;;;;;5013426;28;20056;-42
2023/12/21 01:06:03;;;;;;;1.45;1.27;;;22.80;39.50;;;;;;5015648;28;20065;-42
2023/12/21 01:08:29;;;;;;;1.75;1.08;;;22.70;39.40;;;;;;5010406;28;20089;-41
2023/12/21 01:10:55;;;;;;;0.95;0.80;;;22.60;39.40;;;;;;5010603;28;20038;-40
2023/12/21 01:13:21;;;;;;;1.20;1.10;;;22.60;39.50;;;;;;5012061;28;20042;-42
2023/12/21 01:15:48;;;;;;;1.30;0.80;;;22.60;39.60;;;;;;5010596;28;20080;-41
2023/12/21 01:18:14;;;;;;;3.53;1.23;;;22.60;39.60;;;;;;5012125;28;20033;-42
2023/12/21 01:20:40;;;;;;;1.45;1.10;;;22.60;39.70;;;;;;5012781;28;20044;-42
2023/12/21 01:23:06;;;;;;;4.57;1.10;;;22.70;40.20;;;;;;5011534;28;20029;-42
2023/12/21 01:25:32;;;;;;;1.65;1.23;;;22.60;40.80;;;;;;5010534;28;20034;-43
2023/12/21 01:27:58;;;;;;;1.52;1.00;;;22.60;41.50;;;;;;5010101;28;20050;-42
2023/12/21 01:30:25;;;;;;;1.05;0.90;;;22.60;41.50;;;;;;5012254;28;20045;-44
2023/12/21 01:32:51;;;;;;;3.40;1.10;;;22.70;40.10;;;;;;5039188;28;20049;-44
2023/12/21 01:35:17;;;;;;;1.67;0.90;;;22.60;40.40;;;;;;5117947;28;20110;-41
2023/12/21 01:37:43;;;;;;;2.65;0.98;;;22.50;40.40;;;;;;5118492;27;20023;-44
2023/12/21 01:40:10;;;;;;;1.67;1.00;;;22.40;40.60;;;;;;5120542;28;20099;-44
2023/12/21 01:42:36;;;;;;;1.77;1.10;;;22.40;40.90;;;;;;5117181;28;20028;-44
2023/12/21 01:45:02;;;;;;;1.75;1.00;;;22.40;40.70;;;;;;5115485;28;20061;-44
2023/12/21 01:47:28;;;;;;;1.80;1.02;;;22.50;40.60;;;;;;5114237;28;20089;-44
2023/12/21 01:49:54;;;;;;;1.30;1.00;;;22.50;40.60;;;;;;5098524;28;20032;-44
2023/12/21 01:52:20;;;;;;;2.10;1.02;;;22.50;40.70;;;;;;5096598;28;20121;-44
2023/12/21 01:54:47;;;;;;;1.13;0.90;;;22.40;40.80;;;;;;5100809;28;20046;-45
2023/12/21 01:57:13;;;;;;;1.20;0.90;;;22.40;41.00;;;;;;5099419;28;20504;-44
2023/12/21 01:59:39;;;;;;;2.58;0.93;;;22.40;40.70;;;;;;5100037;28;20028;-44
2023/12/21 02:02:06;;;;;;;1.00;0.80;;;22.30;40.60;;;;;;5110897;28;20058;-44
2023/12/21 02:04:32;;;;;;;1.20;0.95;;;22.30;40.80;;;;;;5117860;28;20016;-45
2023/12/21 02:07:18;;;;;;;1.13;0.93;;;22.20;40.80;;;;;;5120917;28;20036;-44
2023/12/21 02:09:45;;;;;;;1.10;0.95;;;22.10;41.00;;;;;;5050289;28;20080;-44
2023/12/21 02:12:11;;;;;;;1.77;1.13;;;22.20;41.10;;;;;;5061570;28;20067;-45
2023/12/21 02:14:37;;;;;;;1.13;0.80;;;22.20;40.80;;;;;;5059887;28;20045;-44
2023/12/21 02:17:05;;;;;;;1.00;0.90;;;22.10;40.70;;;;;;5059584;28;20045;-44
2023/12/21 02:19:31;;;;;;;2.25;0.70;;;22.10;40.90;;;;;;5058913;28;20059;-45
2023/12/21 02:21:58;;;;;;;2.13;0.68;;;22.10;40.80;;;;;;5061155;28;20037;-44
2023/12/21 02:24:25;;;;;;;;;;;22.20;40.70;;;;;;5061913;28;20062;-44
2023/12/21 02:26:51;;;;;;;1.10;0.70;;;22.40;40.50;;;;;;5058678;28;20016;-42
2023/12/21 02:29:17;;;;;;;0.85;0.70;;;22.50;40.40;;;;;;5060466;28;20063;-42
2023/12/21 02:31:43;;;;;;;1.20;1.00;;;22.40;40.30;;;;;;5054728;28;20029;-42
2023/12/21 02:34:09;;;;;;;3.42;0.82;;;22.30;40.50;;;;;;5057711;28;20052;-42
2023/12/21 02:36:35;;;;;;;0.73;0.70;;;22.20;40.60;;;;;;5042459;28;20037;-44
2023/12/21 02:39:02;;;;;;;1.08;0.77;;;22.10;40.80;;;;;;5055143;28;20056;-44
2023/12/21 02:41:28;;;;;;;1.10;0.90;;;22.10;40.90;;;;;;5056437;28;20059;-44
2023/12/21 02:43:54;;;;;;;1.37;0.70;;;22.10;40.50;;;;;;5056687;28;20029;-44
2023/12/21 02:46:24;;;;;;;2.00;1.00;;;22.10;40.50;;;;;;5075351;28;20499;-44
2023/12/21 02:48:51;;;;;;;1.20;0.85;;;22.00;40.60;;;;;;5115002;28;20123;-44
2023/12/21 02:51:17;;;;;;;0.85;0.73;;;22.00;40.70;;;;;;5116126;28;20063;-45
2023/12/21 02:53:44;;;;;;;1.35;1.10;;;21.90;40.80;;;;;;5114767;28;20099;-44
2023/12/21 02:56:10;;;;;;;2.22;1.00;;;21.90;40.90;;;;;;5116108;28;20101;-44
2023/12/21 02:58:40;;;;;;;1.17;0.80;;;21.90;40.70;;;;;;5116547;28;20028;-44
2023/12/21 03:01:08;;;;;;;1.05;0.80;;;21.90;40.50;;;;;;5115158;28;20070;-44
2023/12/21 03:03:34;;;;;;;1.52;0.90;;;21.80;40.60;;;;;;5116075;28;20400;-45
2023/12/21 03:06:00;;;;;;;1.25;0.73;;;21.90;40.60;;;;;;5114516;28;20028;-44
2023/12/21 03:08:26;;;;;;;1.42;1.17;;;22.00;40.70;;;;;;5115179;28;20502;-44
2023/12/21 03:10:52;;;;;;;1.33;0.85;;;22.10;40.70;;;;;;5118755;28;20042;-44
2023/12/21 03:13:18;;;;;;;0.95;0.80;;;22.20;40.60;;;;;;5114667;28;20545;-41
2023/12/21 03:15:44;;;;;;;1.13;0.90;;;22.20;40.50;;;;;;5119388;28;20043;-42
2023/12/21 03:18:12;;;;;;;1.45;1.05;;;22.10;40.50;;;;;;5117041;28;20129;-42
2023/12/21 03:20:38;;;;;;;;;;;22.00;40.60;;;;;;5123121;28;20154;-42
2023/12/21 03:23:05;;;;;;;1.00;0.90;;;21.90;40.70;;;;;;5106513;28;19938;-43
2023/12/21 03:25:31;;;;;;;2.20;0.90;;;21.90;41.00;;;;;;5116105;28;20023;-43
2023/12/21 03:27:58;;;;;;;1.10;0.80;;;21.90;40.60;;;;;;5122249;28;20087;-43
2023/12/21 03:30:24;;;;;;;1.77;1.00;;;21.90;40.50;;;;;;5115271;28;20118;-43
2023/12/21 03:32:50;;;;;;;1.48;1.02;;;21.90;40.60;;;;;;5122522;28;20057;-42
2023/12/21 03:35:16;;;;;;;2.08;1.13;;;21.80;40.70;;;;;;5112817;28;20040;-44
2023/12/21 03:37:43;;;;;;;1.83;1.17;;;21.70;40.80;;;;;;5109743;28;20797;-43
2023/12/21 03:40:09;;;;;;;1.27;1.00;;;21.70;41.00;;;;;;5119291;27;20032;-42
2023/12/21 03:42:35;;;;;;;1.55;1.10;;;21.70;40.80;;;;;;5104569;28;20028;-43
2023/12/21 03:45:02;;;;;;;1.33;1.08;;;21.70;40.60;;;;;;5109147;28;20028;-42
2023/12/21 03:47:33;;;;;;;1.40;1.17;;;21.70;40.60;;;;;;5106643;28;20045;-43
2023/12/21 03:49:59;;;;;;;1.70;1.00;;;21.80;40.60;;;;;;5109497;28;20056;-43
2023/12/21 03:52:25;;;;;;;2.30;1.25;;;21.90;40.70;;;;;;5114982;27;20023;-43
2023/12/21 03:54:51;;;;;;;1.42;1.00;;;21.90;40.70;;;;;;5125792;27;20046;-43
2023/12/21 03:57:17;;;;;;;1.65;1.15;;;22.00;40.60;;;;;;5116293;28;20110;-43
2023/12/21 03:59:44;;;;;;;2.03;1.42;;;22.10;40.40;;;;;;5116638;28;20057;-43
2023/12/21 04:02:11;;;;;;;3.13;1.10;;;22.10;40.50;;;;;;5105333;27;20050;-43
2023/12/21 04:04:37;;;;;;;1.88;1.20;;;22.00;40.60;;;;;;5111661;27;20078;-42
2023/12/21 04:07:03;;;;;;;2.13;1.10;;;21.90;40.70;;;;;;5117664;28;20044;-43
2023/12/21 04:09:29;;;;;;;3.35;1.35;;;21.80;40.80;;;;;;5115471;28;20065;-43
2023/12/21 04:11:56;;;;;;;1.35;1.20;;;21.70;40.90;;;;;;5115766;28;20061;-43
2023/12/21 04:14:22;;;;;;;2.17;1.45;;;21.70;41.00;;;;;;5117250;28;20088;-43
2023/12/21 04:16:49;;;;;;;1.77;1.35;;;21.80;40.90;;;;;;5118301;28;20046;-42
2023/12/21 04:19:15;;;;;;;1.95;1.25;;;21.70;40.90;;;;;;5117324;28;20028;-43
2023/12/21 04:21:44;;;;;;;2.25;1.23;;;21.70;41.00;;;;;;5117617;28;20058;-42
2023/12/21 04:24:10;;;;;;;1.98;1.33;;;21.60;41.00;;;;;;5115795;28;20537;-43
2023/12/21 04:26:37;;;;;;;2.17;1.20;;;21.50;41.00;;;;;;5098337;28;20120;-43
2023/12/21 04:29:03;;;;;;;2.33;1.40;;;21.50;41.00;;;;;;5119025;28;20783;-43
2023/12/21 04:31:29;;;;;;;4.07;1.30;;;21.70;41.10;;;;;;5116787;28;20106;-43
2023/12/21 04:33:55;;;;;;;2.28;1.30;;;21.80;41.00;;;;;;5122103;28;20024;-43
2023/12/21 04:36:21;;;;;;;1.88;1.30;;;21.90;40.80;;;;;;5121665;28;20181;-43
2023/12/21 04:38:48;;;;;;;1.55;1.10;;;21.90;40.80;;;;;;5118299;28;20188;-43
2023/12/21 04:41:14;;;;;;;1.88;1.10;;;22.00;40.80;;;;;;5114067;28;20024;-42
2023/12/21 04:43:40;;;;;;;2.42;1.48;;;22.10;40.90;;;;;;5119598;28;20020;-43
2023/12/21 04:46:06;;;;;;;1.77;1.40;;;22.10;40.90;;;;;;5116245;28;20039;-42
2023/12/21 04:48:34;;;;;;;2.00;1.52;;;22.20;40.80;;;;;;5116370;28;20140;-43
2023/12/21 04:51:01;;;;;;;2.45;1.70;;;22.30;40.60;;;;;;5119336;28;20027;-42
2023/12/21 04:53:27;;;;;;;2.08;1.48;;;22.20;40.70;;;;;;5116155;28;20039;-43
2023/12/21 04:55:53;;;;;;;2.47;1.63;;;22.20;40.70;;;;;;5115329;28;20051;-42
2023/12/21 04:58:19;;;;;;;2.72;1.70;;;22.10;40.80;;;;;;5119534;28;20031;-42
2023/12/21 05:00:50;;;;;;;2.35;1.70;;;22.10;41.10;;;;;;5117725;28;20034;-42
2023/12/21 05:03:19;;;;;;;2.08;1.60;;;22.10;40.70;;;;;;5099848;28;20676;-43
2023/12/21 05:05:46;;;;;;;1.83;1.50;;;22.00;40.70;;;;;;5114285;28;20035;-43
2023/12/21 05:08:13;;;;;;;2.17;1.67;;;21.90;40.70;;;;;;5121008;28;20440;-43
2023/12/21 05:10:40;;;;;;;2.10;1.60;;;21.80;40.80;;;;;;5119974;28;20038;-42
2023/12/21 05:13:06;;;;;;;2.42;1.60;;;21.70;40.90;;;;;;5120791;27;20605;-43
2023/12/21 05:15:32;;;;;;;1.58;1.48;;;21.70;41.00;;;;;;5122243;28;20039;-42
2023/12/21 05:17:59;;;;;;;2.20;1.40;;;21.80;40.80;;;;;;5121338;28;20095;-42
2023/12/21 05:20:25;;;;;;;2.30;1.80;;;21.80;40.70;;;;;;5120771;28;20055;-42
2023/12/21 05:22:51;;;;;;;1.90;1.67;;;22.00;40.50;;;;;;5121468;28;20348;-43
2023/12/21 05:25:17;;;;;;;1.98;1.60;;;22.10;40.30;;;;;;5117674;28;20032;-42
2023/12/21 05:27:43;;;;;;;2.95;1.50;;;22.20;40.30;;;;;;5122239;28;20030;-42
2023/12/21 05:30:10;;;;;;;2.35;1.45;;;22.20;40.20;;;;;;5120868;28;20089;-42
2023/12/21 05:32:36;;;;;;;2.50;1.80;;;22.30;40.10;;;;;;5121130;28;20028;-42
2023/12/21 05:35:04;;;;;;;2.80;1.85;;;22.30;40.20;;;;;;5120795;28;20046;-42
2023/12/21 05:37:30;;;;;;;3.30;1.90;;;22.30;40.10;;;;;;5121813;28;20087;-41
2023/12/21 05:39:56;;;;;;;3.30;2.17;;;22.30;40.30;;;;;;5120935;28;20023;-42
2023/12/21 05:42:22;;;;;;;2.67;1.67;;;22.20;40.40;;;;;;5120603;28;20024;-42
2023/12/21 05:44:48;;;;;;;2.83;1.95;;;22.10;40.50;;;;;;5122364;28;20032;-42
2023/12/21 05:47:14;;;;;;;4.07;1.60;;;22.10;40.30;;;;;;5118943;28;20095;-43
2023/12/21 05:49:40;;;;;;;2.75;2.05;;;22.00;40.00;;;;;;5118725;28;20105;-42
2023/12/21 05:52:07;;;;;;;2.92;2.00;;;22.00;40.20;;;;;;5118062;28;20023;-42
2023/12/21 05:54:33;;;;;;;2.20;1.88;;;21.90;40.40;;;;;;5119643;28;20069;-42
2023/12/21 05:56:59;;;;;;;2.90;1.83;;;21.80;40.40;;;;;;5119934;28;20126;-43
2023/12/21 05:59:25;;;;;;;2.80;2.20;;;21.70;41.20;;;;;;5117581;28;20031;-42
2023/12/21 06:01:51;;;;;;;3.35;2.17;;;21.80;40.70;;;;;;5120434;27;20055;-42
2023/12/21 06:04:17;;;;;;;1.85;1.60;;;21.80;40.50;;;;;;5119906;28;20091;-43
2023/12/21 06:06:47;;;;;;;4.07;1.85;;;21.90;40.40;;;;;;5120795;28;20117;-42
2023/12/21 06:09:13;;;;;;;2.03;1.70;;;22.00;40.20;;;;;;5117328;28;20028;-42
2023/12/21 06:11:40;;;;;;;2.05;1.67;;;22.10;40.10;;;;;;5121453;28;20030;-42
2023/12/21 06:14:06;;;;;;;2.00;1.60;;;22.20;40.00;;;;;;5116551;28;20032;-43
2023/12/21 06:16:32;;;;;;;3.10;1.80;;;22.40;39.80;;;;;;5119045;28;20059;-43
2023/12/21 06:19:00;;;;;;;2.75;2.05;;;22.50;39.50;;;;;;5118296;28;20024;-44
2023/12/21 06:21:25;;;;;;;;;;;22.40;39.80;;;;;;5119115;27;20031;-43
2023/12/21 06:23:52;;;;;;;2.85;2.20;;;22.30;40.00;;;;;;5119910;28;19912;-43
2023/12/21 06:26:18;;;;;;;2.13;1.58;;;22.20;40.20;;;;;;5117712;27;20059;-42
2023/12/21 06:28:44;;;;;;;2.55;2.10;;;22.10;40.40;;;;;;5120354;28;20094;-43
2023/12/21 06:31:14;;;;;;;2.60;2.20;;;22.10;40.20;;;;;;5116932;28;20024;-42
2023/12/21 06:33:40;;;;;;;3.72;2.05;;;22.00;40.00;;;;;;5121026;28;20032;-43
2023/12/21 06:36:07;;;;;;;2.58;2.22;;;22.00;40.10;;;;;;5119848;28;20050;-43
2023/12/21 06:38:33;;;;;;;3.80;2.30;;;21.90;40.20;;;;;;5117960;28;20018;-43
2023/12/21 06:40:59;;;;;;;2.78;1.92;;;21.80;40.30;;;;;;5116917;27;20035;-43
2023/12/21 06:43:25;;;;;;;2.38;2.00;;;21.70;40.60;;;;;;5117838;27;20037;-42
2023/12/21 06:45:51;;;;;;;2.85;2.08;;;21.80;40.30;;;;;;5115859;28;20058;-42
2023/12/21 06:48:18;;;;;;;3.55;2.05;;;21.90;40.50;;;;;;5119757;28;20056;-42
2023/12/21 06:50:44;;;;;;;2.63;1.90;;;22.00;40.20;;;;;;5116108;28;20030;-43
2023/12/21 06:53:15;;;;;;;2.63;1.83;;;22.10;39.90;;;;;;5114519;28;20027;-44
2023/12/21 06:55:45;;;;;;;2.80;2.10;;;22.20;39.80;;;;;;5116783;28;20091;-43
2023/12/21 06:58:11;;;;;;;2.25;1.80;;;22.30;39.60;;;;;;5115913;28;20019;-42
2023/12/21 07:00:37;;;;;;;3.13;1.92;;;22.40;39.40;;;;;;5115765;28;20059;-42
2023/12/21 07:03:03;;;;;;;2.40;1.90;;;22.50;39.40;;;;;;5115949;28;20028;-43
2023/12/21 07:05:30;;;;;;;4.80;2.30;;;22.40;39.40;;;;;;5117086;28;20023;-43
2023/12/21 07:07:57;;;;;;;3.95;2.70;;;22.30;39.80;;;;;;5118428;28;20028;-42
2023/12/21 07:10:23;;;;;;;3.22;1.88;;;22.20;40.00;;;;;;5100467;28;20028;-43
2023/12/21 07:12:49;;;;;;;2.70;2.00;;;22.10;40.20;;;;;;5117486;28;20032;-43
2023/12/21 07:15:16;;;;;;;2.70;2.10;;;22.10;40.00;;;;;;5116250;28;20032;-43
2023/12/21 07:17:42;;;;;;;2.80;2.25;;;22.00;39.70;;;;;;5117161;28;20080;-42
2023/12/21 07:20:09;;;;;;;3.92;2.60;;;21.90;40.00;;;;;;5115755;28;20041;-42
2023/12/21 07:22:35;;;;;;;2.97;2.40;;;21.90;40.10;;;;;;5115641;28;20030;-43
2023/12/21 07:25:01;;;;;;;3.95;2.38;;;21.80;40.30;;;;;;5117787;28;20503;-43
2023/12/21 07:27:27;;;;;;;2.95;2.35;;;21.80;40.50;;;;;;5119307;28;20027;-43
2023/12/21 07:29:53;;;;;;;2.75;2.35;;;21.70;41.00;;;;;;5118596;28;20027;-43
2023/12/21 07:32:20;;;;;;;3.10;2.40;;;21.80;40.80;;;;;;5118567;28;20063;-43
2023/12/21 07:34:46;;;;;;;2.65;2.30;;;21.90;40.60;;;;;;5117345;28;20036;-44
2023/12/21 07:37:16;;;;;;;3.30;2.40;;;22.00;40.20;;;;;;5118058;28;20032;-44
2023/12/21 07:39:43;;;;;;;3.10;2.30;;;22.20;40.10;;;;;;5114462;28;20034;-43
2023/12/21 07:42:09;;;;;;;3.42;2.50;;;22.30;39.70;;;;;;5114599;28;20091;-45
2023/12/21 07:44:37;;;;;;;3.13;2.30;;;22.40;39.50;;;;;;5118598;28;20028;-44
2023/12/21 07:47:03;;;;;;;2.80;2.30;;;22.50;39.60;;;;;;5113958;28;20035;-44
2023/12/21 07:49:29;;;;;;;4.40;3.00;;;22.30;39.80;;;;;;5115216;28;20059;-43
2023/12/21 07:51:55;;;;;;;3.80;2.38;;;22.20;40.00;;;;;;5112929;28;20044;-44
2023/12/21 07:54:21;;;;;;;3.17;2.35;;;22.10;40.20;;;;;;5117198;28;20030;-44
2023/12/21 07:56:48;;;;;;;3.10;2.40;;;22.10;40.20;;;;;;5119920;28;20045;-43
2023/12/21 07:59:14;;;;;;;2.58;2.22;;;22.00;39.80;;;;;;5116521;28;20027;-43
2023/12/21 08:01:40;;;;;;;3.83;2.90;;;21.90;39.80;;;;;;5116599;27;20027;-43
2023/12/21 08:04:09;;;;;;;3.38;2.85;;;21.90;40.00;;;;;;5116265;28;20049;-44
2023/12/21 08:06:35;;;;;;;3.45;2.60;;;21.70;40.20;;;;;;5118468;28;20041;-43
2023/12/21 08:09:01;;;;;;;3.53;2.45;;;21.70;40.40;;;;;;5117071;28;20059;-43
2023/12/21 08:11:48;;;;;;;3.37;2.40;;;21.70;40.30;;;;;;5118743;28;20027;-44
2023/12/21 08:14:14;;;;;;;3.10;2.35;;;21.70;40.20;;;;;;5033165;28;20046;-43
2023/12/21 08:16:40;;;;;;;3.55;2.45;;;21.90;40.20;;;;;;5033708;28;20052;-44
2023/12/21 08:19:06;;;;;;;2.75;2.28;;;22.00;39.90;;;;;;5033672;28;20069;-43
2023/12/21 08:21:32;;;;;;;3.00;2.20;;;22.10;39.90;;;;;;5036234;28;20093;-40
2023/12/21 08:24:01;;;;;;;2.90;2.28;;;22.20;39.70;;;;;;5031367;28;20036;-42
2023/12/21 08:26:27;;;;;;;2.70;2.38;;;22.30;39.50;;;;;;5031873;28;20041;-43
2023/12/21 08:28:54;;;;;;;3.55;2.58;;;22.40;39.50;;;;;;5036728;28;20037;-43
2023/12/21 08:31:26;;;;;;;3.25;2.35;;;22.40;39.60;;;;;;5035217;28;20045;-43
2023/12/21 08:33:52;;;;;;;3.47;2.58;;;22.30;39.90;;;;;;5035016;28;20045;-43
2023/12/21 08:36:18;;;;;;;3.92;2.42;;;22.20;39.90;;;;;;5036736;28;20038;-43
2023/12/21 08:38:44;;;;;;;4.43;2.85;;;22.10;40.20;;;;;;5035258;28;20057;-43
2023/12/21 08:41:11;;;;;;;4.55;2.45;;;22.10;40.10;;;;;;5032915;28;20026;-42
2023/12/21 08:43:37;;;;;;;3.08;2.42;;;22.00;39.70;;;;;;5038417;28;20022;-42
2023/12/21 08:46:03;;;;;;;4.47;2.90;;;21.90;39.70;;;;;;5023822;28;20038;-43
2023/12/21 08:48:29;;;;;;;3.23;2.47;;;21.90;40.00;;;;;;5040090;28;20137;-43
2023/12/21 08:50:56;;;;;;;3.72;2.83;;;21.80;40.10;;;;;;5048060;28;20100;-43
2023/12/21 08:53:22;;;;;;;3.33;2.65;;;21.70;40.30;;;;;;5120396;28;20026;-43
2023/12/21 08:55:48;;;;;;;4.13;2.70;;;21.70;40.30;;;;;;5121001;28;20039;-43
2023/12/21 08:58:14;;;;;;;3.60;2.43;;;21.70;40.10;;;;;;5121116;28;20027;-42
2023/12/21 09:00:41;;;;;;;3.65;2.55;;;21.80;40.20;;;;;;5120786;28;20107;-43
2023/12/21 09:03:07;;;;;;;3.22;2.40;;;21.90;39.90;;;;;;5120228;28;20471;-42
2023/12/21 09:05:33;;;;;;;4.60;2.40;;;22.00;39.80;;;;;;5122178;28;20023;-43
2023/12/21 09:07:59;;;;;;;3.50;2.27;;;22.20;39.60;;;;;;5119925;28;20019;-43
2023/12/21 09:10:26;;;;;;;3.70;2.33;;;22.30;39.30;;;;;;5120124;28;20268;-43
2023/12/21 09:12:52;;;;;;;3.87;2.67;;;22.40;39.20;;;;;;5120709;28;20019;-42
2023/12/21 09:15:18;;;;;;;3.20;2.42;;;22.40;39.10;;;;;;5120875;28;20300;-42
2023/12/21 09:17:46;;;;;;;3.00;2.60;;;22.40;39.40;;;;;;5119025;28;20024;-43
2023/12/21 09:20:13;;;;;;;3.25;2.65;;;22.30;39.70;;;;;;5118911;28;20123;-42
2023/12/21 09:22:39;;;;;;;4.15;2.47;;;22.10;39.80;;;;;;5119735;28;20027;-42
2023/12/21 09:25:06;;;;;;;4.18;3.10;;;22.10;39.80;;;;;;5117929;28;20032;-43
2023/12/21 09:27:33;;;;;;;3.20;2.70;;;22.00;39.40;;;;;;5119527;28;20053;-43
2023/12/21 09:30:00;;;;;;;4.07;2.90;;;22.00;39.30;;;;;;5115947;28;20051;-43
2023/12/21 09:32:26;;;;;;;4.95;2.55;;;21.90;39.60;;;;;;5119148;28;20032;-43
2023/12/21 09:34:52;;;;;;;6.63;2.63;;;21.80;39.90;;;;;;5119552;28;20032;-42
2023/12/21 09:37:18;;;;;;;4.97;2.72;;;21.80;40.20;;;;;;5118139;28;20082;-42
2023/12/21 09:39:44;;;;;;;4.88;2.60;;;21.80;39.50;;;;;;5118778;28;20038;-43
2023/12/21 09:42:12;;;;;;;3.65;2.72;;;21.90;39.30;;;;;;5117138;28;20031;-43
2023/12/21 09:44:38;;;;;;;3.88;2.67;;;22.00;39.60;;;;;;5094138;28;20031;-43
2023/12/21 09:47:04;;;;;;;3.42;2.35;;;22.10;39.60;;;;;;5114388;28;20035;-43
2023/12/21 09:49:36;;;;;;;3.30;2.35;;;22.10;39.70;;;;;;5117753;28;21008;-43
2023/12/21 09:52:05;;;;;;;3.05;2.50;;;22.20;39.50;;;;;;5099297;28;20032;-43
2023/12/21 09:54:31;;;;;;;3.35;2.60;;;22.30;39.40;;;;;;5112498;28;20061;-43
2023/12/21 09:56:57;;;;;;;2.63;2.28;;;22.40;39.10;;;;;;5112054;28;20036;-43
2023/12/21 09:59:26;;;;;;;3.90;2.75;;;22.50;39.30;;;;;;5098121;28;20027;-43
2023/12/21 10:01:52;;;;;;;3.67;2.42;;;22.50;39.30;;;;;;5117683;27;20035;-43
2023/12/21 10:04:19;;;;;;;2.72;2.42;;;22.50;39.20;;;;;;5096426;28;20028;-44
2023/12/21 10:06:46;;;;;;;3.17;2.42;;;22.60;39.10;;;;;;5116271;28;20040;-43
2023/12/21 10:09:15;;;;;;;;;;;22.60;39.00;;;;;;5109209;27;20038;-43
2023/12/21 10:11:42;;;;;;;2.63;2.25;;;22.60;39.20;;;;;;5116659;28;19912;-43
2023/12/21 10:14:19;;;;;;;3.33;2.83;;;22.40;39.30;;;;;;5116622;28;20031;-43
2023/12/21 10:16:45;;;;;;;3.20;2.73;;;22.30;39.50;;;;;;5112560;27;20063;-43
2023/12/21 10:19:16;;;;;;;3.03;2.35;;;22.20;39.80;;;;;;5110826;28;20020;-43
2023/12/21 10:21:42;;;;;;;3.72;2.45;;;22.20;39.50;;;;;;5113108;27;20031;-43
2023/12/21 10:24:08;;;;;;;3.42;2.88;;;22.10;39.20;;;;;;5114619;28;20030;-43
2023/12/21 10:26:47;;;;;;;3.03;2.63;;;22.10;39.40;;;;;;5117019;27;20058;-44
2023/12/21 10:29:16;;;;;;;4.53;3.00;;;21.90;39.60;;;;;;5115944;28;20038;-45
2023/12/21 10:31:47;;;;;;;3.03;2.60;;;21.80;39.80;;;;;;5113610;28;20025;-44
2023/12/21 10:34:13;;;;;;;2.55;2.25;;;21.90;39.80;;;;;;5118083;28;20032;-44
2023/12/21 10:36:43;;;;;;;2.88;2.65;;;21.90;39.80;;;;;;5115967;28;20075;-44
2023/12/21 10:39:10;;;;;;;3.63;2.45;;;22.00;40.00;;;;;;5118092;28;20043;-43
2023/12/21 10:41:36;;;;;;;3.50;2.55;;;22.10;39.60;;;;;;5118376;28;20038;-43
2023/12/21 10:44:03;;;;;;;3.42;2.40;;;22.20;39.70;;;;;;5119433;27;20120;-43
2023/12/21 10:46:32;;;;;;;2.88;2.58;;;22.20;39.80;;;;;;5117425;28;20080;-45
2023/12/21 10:49:01;;;;;;;3.25;2.58;;;22.30;39.90;;;;;;5117291;28;20050;-43
2023/12/21 10:51:36;;;;;;;3.70;2.70;;;22.30;39.80;;;;;;5116749;28;20061;-43
2023/12/21 10:54:02;;;;;;;3.60;2.95;;;22.50;39.30;;;;;;5118606;28;20095;-43
2023/12/21 10:56:28;;;;;;;4.03;2.67;;;22.40;39.50;;;;;;5099296;28;20031;-44
2023/12/21 10:58:55;;;;;;;3.72;2.90;;;22.30;39.60;;;;;;5100698;28;20074;-43
2023/12/21 11:01:24;;;;;;;3.90;2.67;;;22.20;39.80;;;;;;5096827;28;20051;-44
2023/12/21 11:03:50;;;;;;;3.42;2.72;;;22.20;39.60;;;;;;5100802;28;20031;-43
2023/12/21 11:06:16;;;;;;;3.50;2.83;;;22.20;39.30;;;;;;5117419;28;20023;-44
2023/12/21 11:08:43;;;;;;;4.15;3.08;;;22.10;39.40;;;;;;5097763;28;20278;-43
2023/12/21 11:11:11;;;;;;;3.72;2.88;;;22.00;39.60;;;;;;5097151;28;20047;-43
2023/12/21 11:13:42;;;;;;;4.10;3.00;;;21.90;39.80;;;;;;5114811;28;20047;-44
2023/12/21 11:16:12;;;;;;;3.70;2.88;;;21.90;40.00;;;;;;5114232;28;20036;-43
2023/12/21 11:18:38;;;;;;;4.10;2.72;;;21.90;39.50;;;;;;5101673;28;20027;-43
2023/12/21 11:21:04;;;;;;;3.45;2.55;;;21.90;40.10;;;;;;5117299;28;20028;-43
2023/12/21 11:23:32;;;;;;;3.45;2.50;;;22.00;39.50;;;;;;5096851;28;20042;-43
2023/12/21 11:25:58;;;;;;;4.20;2.65;;;22.00;39.40;;;;;;5118024;28;20035;-43
2023/12/21 11:28:28;;;;;;;3.10;2.60;;;22.10;39.30;;;;;;5116858;27;20039;-44
2023/12/21 11:30:55;;;;;;;4.75;2.83;;;22.30;39.30;;;;;;5116932;28;20050;-43
2023/12/21 11:33:28;;;;;;;2.70;2.30;;;22.30;39.10;;;;;;5115866;28;20020;-43
2023/12/21 11:35:55;;;;;;;3.15;2.50;;;22.40;39.00;;;;;;5114930;28;20051;-43
2023/12/21 11:38:24;;;;;;;3.22;2.55;;;22.40;39.10;;;;;;5117631;27;20023;-43
2023/12/21 11:40:50;;;;;;;3.30;2.72;;;22.50;39.10;;;;;;5099870;28;20106;-43
2023/12/21 11:43:22;;;;;;;2.95;2.47;;;22.70;38.80;;;;;;5113555;28;20016;-44
2023/12/21 11:45:49;;;;;;;3.45;2.63;;;22.70;38.60;;;;;;5115345;28;20039;-43
2023/12/21 11:48:20;;;;;;;4.30;2.63;;;22.70;39.00;;;;;;5094122;28;20032;-44
2023/12/21 11:50:46;;;;;;;4.22;2.90;;;22.50;39.00;;;;;;5095946;28;20035;-43
2023/12/21 11:53:15;;;;;;;3.28;2.70;;;22.40;39.20;;;;;;5095519;28;20096;-44
2023/12/21 11:55:42;;;;;;;2.63;2.42;;;22.30;39.50;;;;;;5096962;28;20058;-43
2023/12/21 11:58:19;;;;;;;3.35;2.70;;;22.30;39.40;;;;;;5094787;28;20034;-43
2023/12/21 12:00:56;;;;;;;4.13;2.85;;;22.30;39.00;;;;;;5094084;28;20871;-43
2023/12/21 12:03:27;;;;;;;3.15;2.42;;;22.20;39.10;;;;;;5092215;28;20078;-43
2023/12/21 12:06:04;;;;;;;3.22;2.67;;;22.10;39.30;;;;;;5094342;28;20048;-43
2023/12/21 12:08:33;;;;;;;4.32;2.75;;;22.00;39.40;;;;;;5095835;28;20027;-43
2023/12/21 12:10:59;;;;;;;3.40;2.65;;;22.00;39.60;;;;;;5097295;28;20488;-43
2023/12/21 12:13:25;;;;;;;3.13;2.63;;;22.00;39.30;;;;;;5096806;28;20028;-43
2023/12/21 12:15:52;;;;;;;3.00;2.20;;;22.10;39.40;;;;;;5094236;28;20060;-43
2023/12/21 12:18:22;;;;;;;2.58;2.33;;;22.20;39.20;;;;;;5096465;28;20055;-43
2023/12/21 12:20:48;;;;;;;2.63;2.13;;;22.30;39.20;;;;;;5097011;28;20058;-43
2023/12/21 12:23:15;;;;;;;3.10;2.50;;;22.40;39.20;;;;;;5095380;28;20063;-43
2023/12/21 12:25:42;;;;;;;2.57;2.23;;;22.50;38.70;;;;;;5097610;28;20306;-43
2023/12/21 12:28:08;;;;;;;3.80;2.95;;;22.50;38.60;;;;;;5095686;28;20101;-43
2023/12/21 12:30:37;;;;;;;3.60;2.90;;;22.70;38.40;;;;;;5096893;28;20036;-43
2023/12/21 12:33:04;;;;;;;4.80;2.72;;;22.50;38.80;;;;;;5094438;28;20063;-44
2023/12/21 12:35:36;;;;;;;3.20;2.50;;;22.40;38.80;;;;;;5097006;28;20048;-43
2023/12/21 12:38:06;;;;;;;3.03;2.47;;;22.30;39.20;;;;;;5097818;28;20036;-43
2023/12/21 12:40:33;;;;;;;3.80;2.83;;;22.30;39.20;;;;;;5092031;28;20121;-44
2023/12/21 12:43:00;;;;;;;4.00;2.80;;;22.30;38.90;;;;;;5096094;28;20036;-43
2023/12/21 12:45:26;;;;;;;3.95;2.85;;;22.20;38.80;;;;;;5097460;28;20029;-43
2023/12/21 12:47:52;;;;;;;3.42;2.53;;;22.10;39.30;;;;;;5102097;28;20076;-43